sensor_id;sensor_type;location;lat;lon;timestamp;noise_LAeq;noise_LA_min;noise_LA_max;noise_LA01;noise_LA95
76217;Laerm;65010;50.190;18.930;2023-02-03T00:00:29;36.20;34.77;37.65;;
76217;Laerm;65010;50.190;18.930;2023-02-03T00:03:35;37.30;34.70;42.00;;
76217;Laerm;65010;50.190;18.930;2023-02-03T00:06:42;39.46;37.57;41.86;;
76217;Laerm;65010;50.190;18.930;2023-02-03T00:09:48;39.54;37.00;42.08;;
76217;Laerm;65010;50.190;18.930;2023-02-03T00:12:58;40.30;38.27;42.30;;
76217;Laerm;65010;50.190;18.930;2023-02-03T00:16:05;39.85;37.95;41.86;;
76217;Laerm;65010;50.190;18.930;2023-02-03T00:19:12;39.87;38.07;42.02;;
76217;Laerm;65010;50.190;18.930;2023-02-03T00:22:19;39.18;35.27;55.42;;
76217;Laerm;65010;50.190;18.930;2023-02-03T00:25:26;45.59;35.41;69.89;;
76217;Laerm;65010;50.190;18.930;2023-02-03T00:28:34;39.37;36.75;42.03;;
76217;Laerm;65010;50.190;18.930;2023-02-03T00:31:41;40.40;38.31;42.99;;
76217;Laerm;65010;50.190;18.930;2023-02-03T00:34:47;40.39;38.01;44.11;;
76217;Laerm;65010;50.190;18.930;2023-02-03T00:37:56;40.39;38.35;42.49;;
76217;Laerm;65010;50.190;18.930;2023-02-03T00:41:02;40.51;38.65;47.02;;
76217;Laerm;65010;50.190;18.930;2023-02-03T00:44:12;40.64;38.77;42.94;;
76217;Laerm;65010;50.190;18.930;2023-02-03T00:47:18;40.62;38.37;42.71;;
76217;Laerm;65010;50.190;18.930;2023-02-03T00:50:26;40.60;38.44;42.46;;
76217;Laerm;65010;50.190;18.930;2023-02-03T00:53:32;40.78;38.68;43.12;;
76217;Laerm;65010;50.190;18.930;2023-02-03T00:56:39;40.81;38.55;43.01;;
76217;Laerm;65010;50.190;18.930;2023-02-03T00:59:49;40.16;37.72;44.72;;
76217;Laerm;65010;50.190;18.930;2023-02-03T01:02:56;47.08;37.75;68.61;;
76217;Laerm;65010;50.190;18.930;2023-02-03T01:06:12;40.50;38.65;42.35;;
76217;Laerm;65010;50.190;18.930;2023-02-03T01:09:19;40.63;38.74;42.73;;
76217;Laerm;65010;50.190;18.930;2023-02-03T01:12:28;39.27;34.89;42.79;;
76217;Laerm;65010;50.190;18.930;2023-02-03T01:15:43;36.23;34.72;42.44;;
76217;Laerm;65010;50.190;18.930;2023-02-03T01:18:50;36.71;34.97;41.38;;
76217;Laerm;65010;50.190;18.930;2023-02-03T01:21:59;38.88;36.75;41.49;;
76217;Laerm;65010;50.190;18.930;2023-02-03T01:25:07;46.16;36.74;66.64;;
76217;Laerm;65010;50.190;18.930;2023-02-03T01:28:14;39.68;37.48;41.57;;
76217;Laerm;65010;50.190;18.930;2023-02-03T01:31:25;38.01;35.40;54.85;;
76217;Laerm;65010;50.190;18.930;2023-02-03T01:34:33;40.34;35.92;58.23;;
76217;Laerm;65010;50.190;18.930;2023-02-03T01:37:40;40.66;38.52;42.71;;
76217;Laerm;65010;50.190;18.930;2023-02-03T01:40:47;40.70;38.44;43.07;;
76217;Laerm;65010;50.190;18.930;2023-02-03T01:43:55;40.59;38.55;42.86;;
76217;Laerm;65010;50.190;18.930;2023-02-03T01:47:22;40.71;38.77;42.97;;
76217;Laerm;65010;50.190;18.930;2023-02-03T01:50:33;40.74;38.61;42.53;;
76217;Laerm;65010;50.190;18.930;2023-02-03T01:53:41;40.71;38.59;42.70;;
76217;Laerm;65010;50.190;18.930;2023-02-03T01:56:54;40.70;38.81;42.73;;
76217;Laerm;65010;50.190;18.930;2023-02-03T02:00:07;40.81;38.99;42.65;;
76217;Laerm;65010;50.190;18.930;2023-02-03T02:03:26;40.98;38.66;42.79;;
76217;Laerm;65010;50.190;18.930;2023-02-03T02:06:36;40.95;38.96;42.70;;
76217;Laerm;65010;50.190;18.930;2023-02-03T02:09:47;40.89;39.01;42.69;;
76217;Laerm;65010;50.190;18.930;2023-02-03T02:12:56;40.87;38.87;42.99;;
76217;Laerm;65010;50.190;18.930;2023-02-03T02:16:14;39.05;35.10;42.70;;
76217;Laerm;65010;50.190;18.930;2023-02-03T02:20:19;36.89;35.17;39.96;;
76217;Laerm;65010;50.190;18.930;2023-02-03T02:24:16;39.05;35.39;44.26;;
76217;Laerm;65010;50.190;18.930;2023-02-03T02:28:27;39.39;37.36;41.63;;
76217;Laerm;65010;50.190;18.930;2023-02-03T02:32:05;40.57;38.36;42.63;;
76217;Laerm;65010;50.190;18.930;2023-02-03T02:35:31;39.25;36.53;58.01;;
76217;Laerm;65010;50.190;18.930;2023-02-03T02:38:58;41.14;38.65;55.30;;
76217;Laerm;65010;50.190;18.930;2023-02-03T02:42:17;40.66;38.27;43.93;;
76217;Laerm;65010;50.190;18.930;2023-02-03T02:45:40;40.61;38.47;46.22;;
76217;Laerm;65010;50.190;18.930;2023-02-03T02:48:59;41.13;39.38;43.07;;
76217;Laerm;65010;50.190;18.930;2023-02-03T02:52:13;41.07;38.80;43.03;;
76217;Laerm;65010;50.190;18.930;2023-02-03T02:55:27;41.08;39.00;42.98;;
76217;Laerm;65010;50.190;18.930;2023-02-03T02:58:44;40.92;38.65;43.02;;
76217;Laerm;65010;50.190;18.930;2023-02-03T03:01:51;42.16;38.89;56.74;;
76217;Laerm;65010;50.190;18.930;2023-02-03T03:05:08;40.68;38.67;42.52;;
76217;Laerm;65010;50.190;18.930;2023-02-03T03:08:30;40.58;38.29;42.53;;
76217;Laerm;65010;50.190;18.930;2023-02-03T03:11:49;40.35;38.34;42.22;;
76217;Laerm;65010;50.190;18.930;2023-02-03T03:15:03;40.53;37.26;54.35;;
76217;Laerm;65010;50.190;18.930;2023-02-03T03:18:20;39.25;36.23;61.23;;
76217;Laerm;65010;50.190;18.930;2023-02-03T03:21:37;38.90;36.83;40.93;;
76217;Laerm;65010;50.190;18.930;2023-02-03T03:24:54;39.90;37.41;42.06;;
76217;Laerm;65010;50.190;18.930;2023-02-03T03:28:10;40.16;38.36;41.91;;
76217;Laerm;65010;50.190;18.930;2023-02-03T03:31:20;41.76;38.03;56.60;;
76217;Laerm;65010;50.190;18.930;2023-02-03T03:34:27;40.05;38.12;46.55;;
76217;Laerm;65010;50.190;18.930;2023-02-03T03:37:44;40.51;38.59;42.88;;
76217;Laerm;65010;50.190;18.930;2023-02-03T03:41:03;41.23;38.96;43.04;;
76217;Laerm;65010;50.190;18.930;2023-02-03T03:44:16;41.03;39.25;43.18;;
76217;Laerm;65010;50.190;18.930;2023-02-03T03:47:30;41.15;39.39;42.84;;
76217;Laerm;65010;50.190;18.930;2023-02-03T03:50:46;41.03;38.90;42.90;;
76217;Laerm;65010;50.190;18.930;2023-02-03T03:54:04;41.30;39.28;43.13;;
76217;Laerm;65010;50.190;18.930;2023-02-03T03:57:19;41.71;39.53;44.17;;
76217;Laerm;65010;50.190;18.930;2023-02-03T04:00:34;41.50;38.79;45.45;;
76217;Laerm;65010;50.190;18.930;2023-02-03T04:03:47;40.84;38.78;42.77;;
76217;Laerm;65010;50.190;18.930;2023-02-03T04:06:55;40.42;38.51;42.71;;
76217;Laerm;65010;50.190;18.930;2023-02-03T04:10:18;41.45;36.99;56.05;;
76217;Laerm;65010;50.190;18.930;2023-02-03T04:13:26;39.15;36.42;60.25;;
76217;Laerm;65010;50.190;18.930;2023-02-03T04:16:33;42.86;38.48;59.24;;
76217;Laerm;65010;50.190;18.930;2023-02-03T04:19:39;41.01;38.42;43.96;;
76217;Laerm;65010;50.190;18.930;2023-02-03T04:22:45;40.57;37.97;45.31;;
76217;Laerm;65010;50.190;18.930;2023-02-03T04:25:54;41.35;39.33;43.81;;
76217;Laerm;65010;50.190;18.930;2023-02-03T04:29:01;40.98;38.97;43.00;;
76217;Laerm;65010;50.190;18.930;2023-02-03T04:32:07;46.69;39.16;67.16;;
76217;Laerm;65010;50.190;18.930;2023-02-03T04:35:14;44.95;38.94;66.00;;
76217;Laerm;65010;50.190;18.930;2023-02-03T04:38:19;43.63;39.14;61.69;;
76217;Laerm;65010;50.190;18.930;2023-02-03T04:41:29;42.82;39.02;58.96;;
76217;Laerm;65010;50.190;18.930;2023-02-03T04:44:35;47.22;34.97;68.70;;
76217;Laerm;65010;50.190;18.930;2023-02-03T04:47:41;42.85;35.13;63.59;;
76217;Laerm;65010;50.190;18.930;2023-02-03T04:50:47;47.81;35.04;66.75;;
76217;Laerm;65010;50.190;18.930;2023-02-03T04:53:54;45.02;36.95;63.98;;
76217;Laerm;65010;50.190;18.930;2023-02-03T04:57:03;38.97;36.83;43.75;;
76217;Laerm;65010;50.190;18.930;2023-02-03T05:00:12;46.26;38.00;63.98;;
76217;Laerm;65010;50.190;18.930;2023-02-03T05:03:18;46.44;36.08;65.80;;
76217;Laerm;65010;50.190;18.930;2023-02-03T05:06:29;43.00;36.21;61.47;;
76217;Laerm;65010;50.190;18.930;2023-02-03T05:09:34;48.65;38.94;67.00;;
76217;Laerm;65010;50.190;18.930;2023-02-03T05:12:44;45.12;38.97;64.36;;
76217;Laerm;65010;50.190;18.930;2023-02-03T05:15:50;44.22;38.96;62.12;;
76217;Laerm;65010;50.190;18.930;2023-02-03T05:18:56;46.13;38.87;62.94;;
76217;Laerm;65010;50.190;18.930;2023-02-03T05:22:02;41.48;39.43;43.85;;
76217;Laerm;65010;50.190;18.930;2023-02-03T05:25:09;42.83;39.59;56.86;;
76217;Laerm;65010;50.190;18.930;2023-02-03T05:28:18;46.13;39.41;60.72;;
76217;Laerm;65010;50.190;18.930;2023-02-03T05:31:24;45.12;39.27;60.32;;
76217;Laerm;65010;50.190;18.930;2023-02-03T05:34:30;47.01;39.61;63.61;;
76217;Laerm;65010;50.190;18.930;2023-02-03T05:37:37;49.47;39.61;67.27;;
76217;Laerm;65010;50.190;18.930;2023-02-03T05:40:43;48.89;39.68;65.75;;
76217;Laerm;65010;50.190;18.930;2023-02-03T05:44:04;49.91;39.48;66.23;;
76217;Laerm;65010;50.190;18.930;2023-02-03T05:47:10;48.55;38.65;67.48;;
76217;Laerm;65010;50.190;18.930;2023-02-03T05:50:17;44.34;38.73;63.23;;
76217;Laerm;65010;50.190;18.930;2023-02-03T05:53:26;51.00;36.13;67.43;;
76217;Laerm;65010;50.190;18.930;2023-02-03T05:56:34;50.60;35.74;65.08;;
76217;Laerm;65010;50.190;18.930;2023-02-03T05:59:43;51.03;35.96;67.15;;
76217;Laerm;65010;50.190;18.930;2023-02-03T06:02:54;51.42;35.98;71.79;;
76217;Laerm;65010;50.190;18.930;2023-02-03T06:06:00;51.40;37.73;64.82;;
76217;Laerm;65010;50.190;18.930;2023-02-03T06:09:08;48.65;38.34;61.78;;
76217;Laerm;65010;50.190;18.930;2023-02-03T06:12:15;47.19;36.19;65.73;;
76217;Laerm;65010;50.190;18.930;2023-02-03T06:15:25;39.77;36.41;58.33;;
76217;Laerm;65010;50.190;18.930;2023-02-03T06:18:30;49.54;38.81;66.66;;
76217;Laerm;65010;50.190;18.930;2023-02-03T06:21:37;43.81;39.10;65.17;;
76217;Laerm;65010;50.190;18.930;2023-02-03T06:24:43;48.19;39.49;65.02;;
76217;Laerm;65010;50.190;18.930;2023-02-03T06:27:50;45.54;39.24;60.84;;
76217;Laerm;65010;50.190;18.930;2023-02-03T06:30:59;48.45;39.45;66.30;;
76217;Laerm;65010;50.190;18.930;2023-02-03T06:34:06;45.85;39.43;63.20;;
76217;Laerm;65010;50.190;18.930;2023-02-03T06:37:12;51.93;39.43;67.09;;
76217;Laerm;65010;50.190;18.930;2023-02-03T06:40:19;47.04;39.02;66.21;;
76217;Laerm;65010;50.190;18.930;2023-02-03T06:43:25;49.87;39.05;64.64;;
76217;Laerm;65010;50.190;18.930;2023-02-03T06:46:34;51.03;39.61;66.72;;
76217;Laerm;65010;50.190;18.930;2023-02-03T06:49:40;52.91;39.60;70.46;;
76217;Laerm;65010;50.190;18.930;2023-02-03T06:52:49;54.43;39.89;72.37;;
76217;Laerm;65010;50.190;18.930;2023-02-03T06:55:55;51.05;39.25;66.98;;
76217;Laerm;65010;50.190;18.930;2023-02-03T06:59:04;49.99;39.69;64.70;;
76217;Laerm;65010;50.190;18.930;2023-02-03T07:02:13;49.67;39.19;65.53;;
76217;Laerm;65010;50.190;18.930;2023-02-03T07:05:20;44.35;36.51;61.30;;
76217;Laerm;65010;50.190;18.930;2023-02-03T07:08:26;48.41;36.72;66.91;;
76217;Laerm;65010;50.190;18.930;2023-02-03T07:11:33;47.46;36.58;66.04;;
76217;Laerm;65010;50.190;18.930;2023-02-03T07:14:38;46.52;36.33;64.56;;
76217;Laerm;65010;50.190;18.930;2023-02-03T07:17:48;49.26;36.71;66.24;;
76217;Laerm;65010;50.190;18.930;2023-02-03T07:20:56;43.82;36.91;60.05;;
76217;Laerm;65010;50.190;18.930;2023-02-03T07:24:04;51.66;38.22;68.68;;
76217;Laerm;65010;50.190;18.930;2023-02-03T07:27:09;51.01;38.60;69.59;;
76217;Laerm;65010;50.190;18.930;2023-02-03T07:30:16;51.87;38.94;70.52;;
76217;Laerm;65010;50.190;18.930;2023-02-03T07:33:25;45.10;38.62;64.15;;
76217;Laerm;65010;50.190;18.930;2023-02-03T07:36:32;48.61;39.38;66.07;;
76217;Laerm;65010;50.190;18.930;2023-02-03T07:39:40;48.84;37.86;64.66;;
76217;Laerm;65010;50.190;18.930;2023-02-03T07:42:48;49.85;37.47;68.22;;
76217;Laerm;65010;50.190;18.930;2023-02-03T07:45:54;49.74;38.59;66.56;;
76217;Laerm;65010;50.190;18.930;2023-02-03T07:49:03;52.28;39.62;64.97;;
76217;Laerm;65010;50.190;18.930;2023-02-03T07:52:09;48.49;39.56;63.19;;
76217;Laerm;65010;50.190;18.930;2023-02-03T07:55:16;51.24;39.23;66.57;;
76217;Laerm;65010;50.190;18.930;2023-02-03T07:58:22;45.38;39.48;65.75;;
76217;Laerm;65010;50.190;18.930;2023-02-03T08:01:29;48.28;39.50;65.43;;
76217;Laerm;65010;50.190;18.930;2023-02-03T08:04:38;45.69;39.00;64.26;;
76217;Laerm;65010;50.190;18.930;2023-02-03T08:07:45;52.39;40.10;68.90;;
76217;Laerm;65010;50.190;18.930;2023-02-03T08:10:53;44.15;39.16;60.80;;
76217;Laerm;65010;50.190;18.930;2023-02-03T08:14:00;44.23;39.34;61.18;;
76217;Laerm;65010;50.190;18.930;2023-02-03T08:17:05;48.65;39.80;66.14;;
76217;Laerm;65010;50.190;18.930;2023-02-03T08:20:15;45.99;39.32;61.22;;
76217;Laerm;65010;50.190;18.930;2023-02-03T08:23:21;48.00;38.72;66.35;;
76217;Laerm;65010;50.190;18.930;2023-02-03T08:26:28;46.87;38.63;67.00;;
76217;Laerm;65010;50.190;18.930;2023-02-03T08:29:34;46.30;35.82;61.45;;
76217;Laerm;65010;50.190;18.930;2023-02-03T08:32:40;47.58;36.35;64.75;;
76217;Laerm;65010;50.190;18.930;2023-02-03T08:35:50;43.08;35.94;61.28;;
76217;Laerm;65010;50.190;18.930;2023-02-03T08:38:56;47.47;37.13;64.72;;
76217;Laerm;65010;50.190;18.930;2023-02-03T08:42:03;43.67;37.90;56.14;;
76217;Laerm;65010;50.190;18.930;2023-02-03T08:45:10;46.34;38.99;61.70;;
76217;Laerm;65010;50.190;18.930;2023-02-03T08:48:16;46.26;37.25;62.28;;
76217;Laerm;65010;50.190;18.930;2023-02-03T08:51:25;47.88;37.48;63.25;;
76217;Laerm;65010;50.190;18.930;2023-02-03T08:54:32;48.70;38.85;64.94;;
76217;Laerm;65010;50.190;18.930;2023-02-03T08:57:40;46.29;39.30;65.23;;
76217;Laerm;65010;50.190;18.930;2023-02-03T09:00:46;43.59;39.69;59.17;;
76217;Laerm;65010;50.190;18.930;2023-02-03T09:03:56;46.46;38.63;62.49;;
76217;Laerm;65010;50.190;18.930;2023-02-03T09:07:06;50.05;38.88;66.89;;
76217;Laerm;65010;50.190;18.930;2023-02-03T09:10:13;51.00;38.94;75.63;;
76217;Laerm;65010;50.190;18.930;2023-02-03T09:13:19;55.55;39.13;73.95;;
76217;Laerm;65010;50.190;18.930;2023-02-03T09:16:26;51.71;39.60;68.97;;
76217;Laerm;65010;50.190;18.930;2023-02-03T09:19:32;48.82;39.73;64.70;;
76217;Laerm;65010;50.190;18.930;2023-02-03T09:22:42;42.64;38.95;65.36;;
76217;Laerm;65010;50.190;18.930;2023-02-03T09:25:48;55.06;38.95;69.28;;
76217;Laerm;65010;50.190;18.930;2023-02-03T09:28:55;47.44;36.45;64.41;;
76217;Laerm;65010;50.190;18.930;2023-02-03T09:32:01;47.99;36.56;68.64;;
76217;Laerm;65010;50.190;18.930;2023-02-03T09:35:11;51.72;38.00;67.94;;
76217;Laerm;65010;50.190;18.930;2023-02-03T09:38:20;50.39;36.94;65.99;;
76217;Laerm;65010;50.190;18.930;2023-02-03T09:45:31;47.17;36.44;66.92;;
76217;Laerm;65010;50.190;18.930;2023-02-03T09:48:46;51.93;36.37;69.96;;
76217;Laerm;65010;50.190;18.930;2023-02-03T09:52:03;50.91;37.39;68.91;;
76217;Laerm;65010;50.190;18.930;2023-02-03T09:55:29;50.29;38.79;69.25;;
76217;Laerm;65010;50.190;18.930;2023-02-03T09:58:38;51.23;39.60;69.43;;
76217;Laerm;65010;50.190;18.930;2023-02-03T10:01:56;49.93;39.33;66.80;;
76217;Laerm;65010;50.190;18.930;2023-02-03T10:05:21;48.29;39.40;64.59;;
76217;Laerm;65010;50.190;18.930;2023-02-03T10:09:07;50.05;38.79;70.64;;
76217;Laerm;65010;50.190;18.930;2023-02-03T10:12:54;51.49;39.90;66.04;;
76217;Laerm;65010;50.190;18.930;2023-02-03T10:16:42;50.39;39.51;66.73;;
76217;Laerm;65010;50.190;18.930;2023-02-03T10:20:03;51.85;39.66;70.75;;
76217;Laerm;65010;50.190;18.930;2023-02-03T10:23:18;47.23;38.46;64.96;;
76217;Laerm;65010;50.190;18.930;2023-02-03T10:26:29;52.41;39.88;67.29;;
76217;Laerm;65010;50.190;18.930;2023-02-03T10:29:42;50.75;40.05;64.91;;
76217;Laerm;65010;50.190;18.930;2023-02-03T10:32:50;50.30;39.72;68.54;;
76217;Laerm;65010;50.190;18.930;2023-02-03T10:36:12;50.01;39.14;66.81;;
76217;Laerm;65010;50.190;18.930;2023-02-03T10:39:32;50.00;36.11;67.85;;
76217;Laerm;65010;50.190;18.930;2023-02-03T10:42:45;52.77;36.83;69.22;;
76217;Laerm;65010;50.190;18.930;2023-02-03T10:46:07;46.17;38.43;63.20;;
76217;Laerm;65010;50.190;18.930;2023-02-03T10:49:14;47.89;39.12;69.55;;
76217;Laerm;65010;50.190;18.930;2023-02-03T10:52:29;49.01;39.31;67.11;;
76217;Laerm;65010;50.190;18.930;2023-02-03T10:55:36;52.12;38.88;69.60;;
76217;Laerm;65010;50.190;18.930;2023-02-03T10:58:49;52.34;39.23;68.28;;
76217;Laerm;65010;50.190;18.930;2023-02-03T11:01:59;46.71;39.12;61.57;;
76217;Laerm;65010;50.190;18.930;2023-02-03T11:05:19;50.42;38.92;67.10;;
76217;Laerm;65010;50.190;18.930;2023-02-03T11:08:30;52.15;39.13;68.16;;
76217;Laerm;65010;50.190;18.930;2023-02-03T11:11:36;51.86;39.08;67.64;;
76217;Laerm;65010;50.190;18.930;2023-02-03T11:14:47;48.26;36.78;68.09;;
76217;Laerm;65010;50.190;18.930;2023-02-03T11:17:56;53.40;36.62;74.54;;
76217;Laerm;65010;50.190;18.930;2023-02-03T11:21:11;39.42;36.52;44.13;;
76217;Laerm;65010;50.190;18.930;2023-02-03T11:24:21;51.25;37.80;66.16;;
76217;Laerm;65010;50.190;18.930;2023-02-03T11:27:32;51.27;38.23;70.28;;
76217;Laerm;65010;50.190;18.930;2023-02-03T11:30:38;51.73;38.27;72.76;;
76217;Laerm;65010;50.190;18.930;2023-02-03T11:33:56;56.32;38.82;70.83;;
76217;Laerm;65010;50.190;18.930;2023-02-03T11:37:30;48.95;38.21;66.48;;
76217;Laerm;65010;50.190;18.930;2023-02-03T11:40:37;58.85;36.77;72.83;;
76217;Laerm;65010;50.190;18.930;2023-02-03T11:43:44;57.34;37.60;72.48;;
76217;Laerm;65010;50.190;18.930;2023-02-03T11:46:57;51.89;38.17;70.80;;
76217;Laerm;65010;50.190;18.930;2023-02-03T11:50:27;55.01;39.13;72.68;;
76217;Laerm;65010;50.190;18.930;2023-02-03T11:53:56;45.05;38.80;56.58;;
76217;Laerm;65010;50.190;18.930;2023-02-03T11:57:32;51.84;39.09;69.96;;
76217;Laerm;65010;50.190;18.930;2023-02-03T12:00:51;53.57;39.49;72.90;;
76217;Laerm;65010;50.190;18.930;2023-02-03T12:04:24;49.29;38.89;68.89;;
76217;Laerm;65010;50.190;18.930;2023-02-03T12:08:09;55.78;39.83;72.56;;
76217;Laerm;65010;50.190;18.930;2023-02-03T12:11:39;54.76;36.59;74.57;;
76217;Laerm;65010;50.190;18.930;2023-02-03T12:15:12;48.58;37.37;66.46;;
76217;Laerm;65010;50.190;18.930;2023-02-03T12:18:44;53.48;37.93;70.40;;
76217;Laerm;65010;50.190;18.930;2023-02-03T12:22:05;53.36;38.18;70.33;;
76217;Laerm;65010;50.190;18.930;2023-02-03T12:25:35;45.38;39.04;63.74;;
76217;Laerm;65010;50.190;18.930;2023-02-03T12:28:55;49.42;38.74;70.62;;
76217;Laerm;65010;50.190;18.930;2023-02-03T12:32:17;53.05;38.68;72.74;;
76217;Laerm;65010;50.190;18.930;2023-02-03T12:35:33;55.01;39.45;70.28;;
76217;Laerm;65010;50.190;18.930;2023-02-03T12:38:51;54.12;39.11;72.70;;
76217;Laerm;65010;50.190;18.930;2023-02-03T12:42:16;51.06;39.18;68.42;;
76217;Laerm;65010;50.190;18.930;2023-02-03T12:45:30;54.09;39.19;74.30;;
76217;Laerm;65010;50.190;18.930;2023-02-03T12:48:53;52.04;39.36;71.55;;
76217;Laerm;65010;50.190;18.930;2023-02-03T12:52:13;51.79;39.74;69.52;;
76217;Laerm;65010;50.190;18.930;2023-02-03T12:55:34;53.42;40.06;73.57;;
76217;Laerm;65010;50.190;18.930;2023-02-03T12:58:51;56.87;40.11;73.22;;
76217;Laerm;65010;50.190;18.930;2023-02-03T13:02:17;55.86;40.21;75.63;;
76217;Laerm;65010;50.190;18.930;2023-02-03T13:05:45;50.27;39.74;67.45;;
76217;Laerm;65010;50.190;18.930;2023-02-03T13:09:12;55.80;39.90;74.54;;
76217;Laerm;65010;50.190;18.930;2023-02-03T13:12:30;57.29;36.76;71.67;;
76217;Laerm;65010;50.190;18.930;2023-02-03T13:15:47;56.31;36.75;75.87;;
76217;Laerm;65010;50.190;18.930;2023-02-03T13:19:04;59.61;37.29;76.63;;
76217;Laerm;65010;50.190;18.930;2023-02-03T13:22:15;54.15;37.91;72.64;;
76217;Laerm;65010;50.190;18.930;2023-02-03T13:25:31;50.35;37.77;67.56;;
76217;Laerm;65010;50.190;18.930;2023-02-03T13:29:13;52.51;38.53;69.69;;
76217;Laerm;65010;50.190;18.930;2023-02-03T13:32:58;52.21;39.03;72.68;;
76217;Laerm;65010;50.190;18.930;2023-02-03T13:36:40;56.37;39.68;72.47;;
76217;Laerm;65010;50.190;18.930;2023-02-03T13:40:29;53.72;39.87;69.32;;
76217;Laerm;65010;50.190;18.930;2023-02-03T13:43:46;60.11;41.26;79.81;;
76217;Laerm;65010;50.190;18.930;2023-02-03T13:46:58;57.15;39.98;72.65;;
76217;Laerm;65010;50.190;18.930;2023-02-03T13:50:21;56.43;39.79;72.95;;
76217;Laerm;65010;50.190;18.930;2023-02-03T13:53:34;53.87;38.15;70.73;;
76217;Laerm;65010;50.190;18.930;2023-02-03T13:56:41;54.14;37.76;70.91;;
76217;Laerm;65010;50.190;18.930;2023-02-03T13:59:58;55.77;38.30;73.75;;
76217;Laerm;65010;50.190;18.930;2023-02-03T14:03:16;57.24;38.30;77.40;;
76217;Laerm;65010;50.190;18.930;2023-02-03T14:06:58;57.05;38.92;72.94;;
76217;Laerm;65010;50.190;18.930;2023-02-03T14:10:22;55.80;39.03;70.70;;
76217;Laerm;65010;50.190;18.930;2023-02-03T14:13:28;57.56;39.05;72.12;;
76217;Laerm;65010;50.190;18.930;2023-02-03T14:16:36;54.20;39.33;70.87;;
76217;Laerm;65010;50.190;18.930;2023-02-03T14:19:54;55.10;39.43;70.55;;
76217;Laerm;65010;50.190;18.930;2023-02-03T14:23:12;55.19;39.37;74.83;;
76217;Laerm;65010;50.190;18.930;2023-02-03T14:26:41;55.41;38.84;70.22;;
76217;Laerm;65010;50.190;18.930;2023-02-03T14:30:06;58.74;39.57;75.06;;
76217;Laerm;65010;50.190;18.930;2023-02-03T14:33:13;57.31;39.58;71.64;;
76217;Laerm;65010;50.190;18.930;2023-02-03T14:36:31;55.82;39.75;73.45;;
76217;Laerm;65010;50.190;18.930;2023-02-03T14:43:50;56.81;39.82;71.33;;
76217;Laerm;65010;50.190;18.930;2023-02-03T14:47:24;55.17;39.87;72.86;;
76217;Laerm;65010;50.190;18.930;2023-02-03T14:51:00;53.94;40.15;71.65;;
76217;Laerm;65010;50.190;18.930;2023-02-03T14:54:32;55.13;40.03;72.89;;
76217;Laerm;65010;50.190;18.930;2023-02-03T14:57:57;53.86;40.43;70.67;;
76217;Laerm;65010;50.190;18.930;2023-02-03T15:02:05;52.45;40.77;70.94;;
76217;Laerm;65010;50.190;18.930;2023-02-03T15:05:35;52.94;40.70;72.74;;
76217;Laerm;65010;50.190;18.930;2023-02-03T15:08:45;55.29;41.04;73.71;;
76217;Laerm;65010;50.190;18.930;2023-02-03T15:12:00;52.86;40.09;71.24;;
76217;Laerm;65010;50.190;18.930;2023-02-03T15:15:37;56.97;40.31;72.90;;
76217;Laerm;65010;50.190;18.930;2023-02-03T15:18:52;54.37;40.38;71.34;;
76217;Laerm;65010;50.190;18.930;2023-02-03T15:21:59;51.48;40.82;69.38;;
76217;Laerm;65010;50.190;18.930;2023-02-03T15:25:18;52.91;40.85;70.26;;
76217;Laerm;65010;50.190;18.930;2023-02-03T15:28:34;46.77;40.10;66.55;;
76217;Laerm;65010;50.190;18.930;2023-02-03T15:31:51;54.37;40.27;69.76;;
76217;Laerm;65010;50.190;18.930;2023-02-03T15:35:04;50.40;37.60;69.06;;
76217;Laerm;65010;50.190;18.930;2023-02-03T15:38:26;53.07;38.74;68.33;;
76217;Laerm;65010;50.190;18.930;2023-02-03T15:41:35;50.01;39.10;65.55;;
76217;Laerm;65010;50.190;18.930;2023-02-03T15:44:52;53.52;39.24;69.52;;
76217;Laerm;65010;50.190;18.930;2023-02-03T15:48:17;51.61;39.97;67.99;;
76217;Laerm;65010;50.190;18.930;2023-02-03T15:51:41;48.68;39.57;65.52;;
76217;Laerm;65010;50.190;18.930;2023-02-03T15:55:07;50.75;39.73;66.23;;
76217;Laerm;65010;50.190;18.930;2023-02-03T15:58:29;46.46;39.72;63.88;;
76217;Laerm;65010;50.190;18.930;2023-02-03T16:01:36;46.91;39.40;66.02;;
76217;Laerm;65010;50.190;18.930;2023-02-03T16:04:46;48.72;39.77;64.20;;
76217;Laerm;65010;50.190;18.930;2023-02-03T16:07:52;49.54;39.37;67.69;;
76217;Laerm;65010;50.190;18.930;2023-02-03T16:10:59;49.64;38.21;68.21;;
76217;Laerm;65010;50.190;18.930;2023-02-03T16:14:11;47.88;39.26;65.80;;
76217;Laerm;65010;50.190;18.930;2023-02-03T16:17:37;51.41;39.94;67.65;;
76217;Laerm;65010;50.190;18.930;2023-02-03T16:20:51;48.86;39.88;64.31;;
76217;Laerm;65010;50.190;18.930;2023-02-03T16:24:26;50.07;39.63;65.73;;
76217;Laerm;65010;50.190;18.930;2023-02-03T16:27:32;51.79;39.55;69.31;;
76217;Laerm;65010;50.190;18.930;2023-02-03T16:30:57;51.73;39.56;68.57;;
76217;Laerm;65010;50.190;18.930;2023-02-03T16:34:18;48.20;39.57;66.82;;
76217;Laerm;65010;50.190;18.930;2023-02-03T16:37:44;45.74;39.61;70.95;;
76217;Laerm;65010;50.190;18.930;2023-02-03T16:41:16;50.24;39.53;67.82;;
76217;Laerm;65010;50.190;18.930;2023-02-03T16:44:35;50.55;39.73;65.51;;
76217;Laerm;65010;50.190;18.930;2023-02-03T16:47:53;50.43;39.91;69.06;;
76217;Laerm;65010;50.190;18.930;2023-02-03T16:51:15;52.37;39.92;71.26;;
76217;Laerm;65010;50.190;18.930;2023-02-03T16:54:25;47.41;39.69;64.00;;
76217;Laerm;65010;50.190;18.930;2023-02-03T16:57:37;50.58;39.44;69.22;;
76217;Laerm;65010;50.190;18.930;2023-02-03T17:00:45;52.26;40.04;67.12;;
76217;Laerm;65010;50.190;18.930;2023-02-03T17:03:53;52.36;38.89;69.15;;
76217;Laerm;65010;50.190;18.930;2023-02-03T17:07:00;45.94;39.12;61.40;;
76217;Laerm;65010;50.190;18.930;2023-02-03T17:10:13;52.62;39.03;68.58;;
76217;Laerm;65010;50.190;18.930;2023-02-03T17:13:21;48.85;39.23;68.52;;
76217;Laerm;65010;50.190;18.930;2023-02-03T17:16:28;46.84;38.94;63.55;;
76217;Laerm;65010;50.190;18.930;2023-02-03T17:19:51;43.66;39.32;58.54;;
76217;Laerm;65010;50.190;18.930;2023-02-03T17:22:59;49.34;39.70;66.51;;
76217;Laerm;65010;50.190;18.930;2023-02-03T17:26:11;49.45;39.27;64.17;;
76217;Laerm;65010;50.190;18.930;2023-02-03T17:29:18;48.24;39.41;66.16;;
76217;Laerm;65010;50.190;18.930;2023-02-03T17:32:24;49.37;39.36;67.06;;
76217;Laerm;65010;50.190;18.930;2023-02-03T17:35:31;49.17;39.13;69.90;;
76217;Laerm;65010;50.190;18.930;2023-02-03T17:38:43;48.51;39.34;65.05;;
76217;Laerm;65010;50.190;18.930;2023-02-03T17:42:06;49.73;39.47;67.61;;
76217;Laerm;65010;50.190;18.930;2023-02-03T17:45:26;49.41;39.34;67.50;;
76217;Laerm;65010;50.190;18.930;2023-02-03T17:48:47;51.17;39.56;68.04;;
76217;Laerm;65010;50.190;18.930;2023-02-03T17:52:07;44.63;38.91;62.26;;
76217;Laerm;65010;50.190;18.930;2023-02-03T17:55:28;44.87;38.95;64.11;;
76217;Laerm;65010;50.190;18.930;2023-02-03T17:58:39;48.29;39.25;66.72;;